Portada
METAR-TAF:

METAR-TAF

Aeroports :

Castres, França

latitud: 43-33-25N, longitud: 2-17-21E, altitud: 239 m

Observació

L'informe es va fer fa 16 minuts, a les 08:30 UTC
Vent 4 kt del Oest
Temperatura 12°C
Humitat 62%
Pressió 1026 hPa
Visibilitat 10 km o més
sense núvols per sota de 1500 mi sense presència de cumulonimbus.

METAR: LFCK 240830Z AUTO 26004KT CAVOK 12/05 Q1026 NOSIG

Hora: 09:46 (08:46 UTC)

Pronòstic

L'informe es va fer fa 3 hores i 46 minuts, a les 05:00 UTC
Pronòstic vàlid del 24 a les 06 UTC al 24 a les 15 UTC
Vent 3 kt amb direcció variable
Visibilitat 10 km o més
sense núvols per sota de 1500 mi sense presència de cumulonimbus.
Evolucionant progressivament
l' 24 a les 10 UTC al 24 a les 12 UTC
Vent 8 kt del Oest/Nord-Oest

TAF: LFCK 240500Z 2406/2415 VRB03KT CAVOK BECMG 2410/2412 29008KT

Observacions i pronòstics meteorològics de més de 4000 aeroports (METAR i TAF).

Les estacions disponibles són els punts grocs i vermells al mapa.

Posi el ratolí al punt desitjat per veure el nom de l'estació.

Feu clic per veure les observacions i els pronòstics meteorològics.

Per canviar el mapa: feu clic els botons verds amb una creu de color negre per apropar; al botó verd amb un guió per allunyar la imatge; o en les fletxes verdes per a mapes adjacents.


METAR-TAF: